createdAt,value
2023-07-19T00:02:13.663Z,13.69
2023-07-19T00:06:17.168Z,13.64
2023-07-19T00:10:24.290Z,13.57
2023-07-19T00:14:27.611Z,13.46
2023-07-19T00:18:38.201Z,13.41
2023-07-19T00:22:45.277Z,13.41
2023-07-19T00:26:52.350Z,13.36
2023-07-19T00:31:04.053Z,13.32
2023-07-19T00:35:08.255Z,13.19
2023-07-19T00:39:11.809Z,12.96
2023-07-19T00:43:15.815Z,12.77
2023-07-19T00:47:20.403Z,12.72
2023-07-19T00:51:24.991Z,12.74
2023-07-19T00:55:29.117Z,12.77
2023-07-19T00:59:35.144Z,12.72
2023-07-19T01:03:40.779Z,12.72
2023-07-19T01:07:44.919Z,12.68
2023-07-19T01:11:48.249Z,12.58
2023-07-19T01:15:52.184Z,12.47
2023-07-19T01:19:56.019Z,12.49
2023-07-19T01:23:59.338Z,12.49
2023-07-19T01:28:03.118Z,12.45
2023-07-19T01:32:08.323Z,12.29
2023-07-19T01:36:11.750Z,12.18
2023-07-19T01:40:15.865Z,12.16
2023-07-19T01:44:19.790Z,12.16
2023-07-19T01:48:24.154Z,12.15
2023-07-19T01:52:27.982Z,12.15
2023-07-19T01:56:31.779Z,12.17
2023-07-19T02:00:36.952Z,12.20
2023-07-19T02:04:41.989Z,12.22
2023-07-19T02:08:47.138Z,12.19
2023-07-19T02:12:51.348Z,12.13
2023-07-19T02:16:54.610Z,12.06
2023-07-19T02:20:58.321Z,11.99
2023-07-19T02:25:01.749Z,11.99
2023-07-19T02:29:11.782Z,11.96
2023-07-19T02:33:16.785Z,11.90
2023-07-19T02:37:20.119Z,11.78
2023-07-19T02:41:23.623Z,11.69
2023-07-19T02:45:27.639Z,11.63
2023-07-19T02:49:31.095Z,11.63
2023-07-19T02:53:36.898Z,11.64
2023-07-19T02:57:40.921Z,11.67
2023-07-19T03:01:44.499Z,11.72
2023-07-19T03:05:49.201Z,11.76
2023-07-19T03:09:52.578Z,11.80
2023-07-19T03:13:55.910Z,11.78
2023-07-19T03:18:00.214Z,11.70
2023-07-19T03:22:04.454Z,11.73
2023-07-19T03:26:10.050Z,11.74
2023-07-19T03:30:15.274Z,11.77
2023-07-19T03:34:18.665Z,11.88
2023-07-19T03:38:22.821Z,12.10
2023-07-19T03:42:28.419Z,12.29
2023-07-19T03:46:31.815Z,12.45
2023-07-19T03:50:35.599Z,12.60
2023-07-19T03:54:39.113Z,12.70
2023-07-19T03:58:44.704Z,12.80
2023-07-19T04:02:48.209Z,12.92
2023-07-19T04:06:55.177Z,13.08
2023-07-19T04:10:59.539Z,13.27
2023-07-19T04:15:03.280Z,13.46
2023-07-19T04:19:07.296Z,13.61
2023-07-19T04:23:12.289Z,13.92
2023-07-19T04:27:15.812Z,14.31
2023-07-19T04:31:19.416Z,14.80
2023-07-19T04:35:26.662Z,15.28
2023-07-19T04:39:32.101Z,15.80
2023-07-19T04:43:37.179Z,16.35
2023-07-19T04:47:42.993Z,16.83
2023-07-19T04:51:46.892Z,17.38
2023-07-19T04:55:56.126Z,17.90
2023-07-19T05:00:02.528Z,18.53
2023-07-19T05:04:06.990Z,19.09
2023-07-19T05:08:10.542Z,19.65
2023-07-19T05:12:14.653Z,20.22
2023-07-19T05:16:18.189Z,20.60
2023-07-19T05:20:22.288Z,20.83
2023-07-19T05:24:26.266Z,20.78
2023-07-19T05:28:31.033Z,20.80
2023-07-19T05:32:34.635Z,20.89
2023-07-19T05:36:40.932Z,20.98
2023-07-19T05:40:44.236Z,20.98
2023-07-19T05:44:48.028Z,20.95
2023-07-19T05:48:51.432Z,20.84
2023-07-19T05:52:56.108Z,20.81
2023-07-19T05:56:59.595Z,20.97
2023-07-19T06:01:11.152Z,21.10
2023-07-19T06:05:16.098Z,21.10
2023-07-19T06:09:21.507Z,21.19
2023-07-19T06:13:25.440Z,21.37
2023-07-19T06:17:28.979Z,21.63
2023-07-19T06:21:33.260Z,21.81
2023-07-19T06:25:36.564Z,21.90
2023-07-19T06:29:40.506Z,22.03
2023-07-19T06:33:44.329Z,22.15
2023-07-19T06:37:48.610Z,22.19
2023-07-19T06:41:51.974Z,22.31
2023-07-19T06:45:56.113Z,22.48
2023-07-19T06:50:00.659Z,22.51
2023-07-19T06:54:14.432Z,22.62
2023-07-19T06:58:19.623Z,22.77
2023-07-19T07:55:33.480Z,24.87
2023-07-19T07:59:51.566Z,25.11
2023-07-19T08:04:01.778Z,25.02
2023-07-19T08:08:18.320Z,25.06
2023-07-19T08:12:22.319Z,25.20
2023-07-19T08:16:25.905Z,25.31
2023-07-19T08:20:30.947Z,25.49
2023-07-19T08:24:35.083Z,25.55
2023-07-19T08:28:42.651Z,25.55
2023-07-19T08:32:50.852Z,25.70
2023-07-19T08:36:55.959Z,26.03
2023-07-19T08:41:08.271Z,26.03
2023-07-19T08:45:14.864Z,26.03
2023-07-19T08:49:20.861Z,25.97
2023-07-19T08:53:32.267Z,25.93
2023-07-19T08:57:48.545Z,25.80
2023-07-19T09:02:03.631Z,25.63
2023-07-19T09:06:13.425Z,25.60
2023-07-19T09:10:22.600Z,25.72
2023-07-19T09:14:38.366Z,25.83
2023-07-19T09:18:53.780Z,25.97
2023-07-19T09:23:05.074Z,26.16
2023-07-19T09:27:12.808Z,26.40
2023-07-19T09:31:29.606Z,26.71
2023-07-19T09:35:33.606Z,26.82
2023-07-19T09:39:47.970Z,27.02
2023-07-19T09:43:57.204Z,27.13
2023-07-19T09:48:04.329Z,27.15
2023-07-19T09:52:18.572Z,27.23
2023-07-19T09:56:22.668Z,27.52
2023-07-19T10:00:27.475Z,27.74
2023-07-19T10:04:39.949Z,28.00
2023-07-19T10:08:43.357Z,28.01
2023-07-19T10:12:51.700Z,27.93
2023-07-19T10:17:05.976Z,27.94
2023-07-19T10:21:11.677Z,28.01
2023-07-19T10:25:21.423Z,27.91
2023-07-19T10:29:28.529Z,27.89
2023-07-19T10:33:37.972Z,27.81
2023-07-19T10:37:54.065Z,27.91
2023-07-19T10:41:58.437Z,28.21
2023-07-19T10:46:05.002Z,28.60
2023-07-19T10:50:12.756Z,28.76
2023-07-19T10:54:21.712Z,28.88
2023-07-19T10:58:27.956Z,29.04
2023-07-19T11:02:33.044Z,29.14
2023-07-19T11:06:56.007Z,28.96
2023-07-19T11:11:01.265Z,29.02
2023-07-19T11:15:09.968Z,29.06
2023-07-19T11:19:13.779Z,28.66
2023-07-19T11:23:23.052Z,28.65
2023-07-19T11:27:38.397Z,28.62
2023-07-19T11:31:42.059Z,28.52
2023-07-19T11:35:46.376Z,28.45
2023-07-19T11:39:53.784Z,28.23
2023-07-19T11:56:24.621Z,27.99
2023-07-19T12:00:29.117Z,28.04
2023-07-19T12:04:32.405Z,27.99
2023-07-19T12:08:35.178Z,28.15
2023-07-19T12:12:37.392Z,28.25
2023-07-19T12:16:39.491Z,28.36
2023-07-19T12:20:41.573Z,28.64
2023-07-19T12:24:43.985Z,28.75
2023-07-19T12:28:47.764Z,28.85
2023-07-19T12:32:49.939Z,28.93
2023-07-19T12:36:52.875Z,29.08
2023-07-19T12:40:54.965Z,29.25
2023-07-19T12:44:57.164Z,29.31
2023-07-19T12:48:59.730Z,29.43
2023-07-19T12:53:01.880Z,29.44
2023-07-19T12:57:07.304Z,29.45
2023-07-19T13:01:09.444Z,29.54
2023-07-19T13:05:12.273Z,29.70
2023-07-19T13:09:15.721Z,29.85
2023-07-19T13:13:17.876Z,29.96
2023-07-19T13:17:22.324Z,30.01
2023-07-19T13:21:26.280Z,29.99
2023-07-19T13:25:29.002Z,29.58
2023-07-19T13:29:31.572Z,29.47
2023-07-19T13:33:33.660Z,29.50
2023-07-19T13:41:40.668Z,29.28
2023-07-19T13:45:42.874Z,29.36
2023-07-19T13:49:45.296Z,29.76
2023-07-19T13:53:47.392Z,30.09
2023-07-19T13:57:49.470Z,30.36
2023-07-19T14:01:51.742Z,30.51
2023-07-19T14:05:53.781Z,30.15
2023-07-19T14:09:56.605Z,29.37
2023-07-19T14:13:58.843Z,28.96
2023-07-19T14:18:02.043Z,28.83
2023-07-19T14:22:07.816Z,28.87
2023-07-19T14:26:11.042Z,28.87
2023-07-19T14:30:20.460Z,28.80
2023-07-19T14:34:26.240Z,28.66
2023-07-19T14:38:31.411Z,28.57
2023-07-19T14:42:35.473Z,28.59
2023-07-19T14:46:39.728Z,28.60
2023-07-19T14:50:55.636Z,28.63
2023-07-19T14:59:08.094Z,28.85
2023-07-19T15:07:28.967Z,29.07
2023-07-19T15:11:31.631Z,28.96
2023-07-19T15:15:33.742Z,29.11
2023-07-19T15:19:36.052Z,29.31
2023-07-19T15:23:38.943Z,29.25
2023-07-19T15:27:52.118Z,29.04
2023-07-19T15:31:55.579Z,28.91
2023-07-19T15:35:59.796Z,29.02
2023-07-19T15:40:05.510Z,29.30
2023-07-19T15:44:25.629Z,29.08
2023-07-19T15:48:31.800Z,28.69
2023-07-19T15:52:34.037Z,28.67
2023-07-19T15:56:36.416Z,28.79
2023-07-19T16:00:38.548Z,28.82
2023-07-19T16:04:41.988Z,28.85
2023-07-19T16:08:45.033Z,28.81
2023-07-19T16:12:51.256Z,28.68
2023-07-19T16:16:54.049Z,28.58
2023-07-19T16:20:56.474Z,28.51
2023-07-19T16:25:00.047Z,28.38
2023-07-19T16:29:02.957Z,28.14
2023-07-19T16:33:05.134Z,27.94
2023-07-19T16:37:07.468Z,27.84
2023-07-19T16:41:10.389Z,27.84
2023-07-19T16:45:12.937Z,27.80
2023-07-19T16:49:15.134Z,27.71
2023-07-19T16:53:20.058Z,27.58
2023-07-19T16:57:22.042Z,27.42
2023-07-19T17:01:27.772Z,27.25
2023-07-19T17:05:34.395Z,27.10
2023-07-19T17:09:44.894Z,27.00
2023-07-19T17:13:47.008Z,26.91
2023-07-19T17:17:49.542Z,26.88
2023-07-19T17:21:51.922Z,26.83
2023-07-19T17:25:53.952Z,26.73
2023-07-19T17:29:57.063Z,26.63
2023-07-19T17:33:59.844Z,26.56
2023-07-19T17:38:09.441Z,26.50
2023-07-19T17:42:13.879Z,26.40
2023-07-19T17:46:20.816Z,26.26
2023-07-19T17:50:23.350Z,26.10
2023-07-19T17:54:25.394Z,26.02
2023-07-19T17:58:28.046Z,25.91
2023-07-19T18:02:31.799Z,25.74
2023-07-19T18:06:34.672Z,25.57
2023-07-19T18:10:40.924Z,25.32
2023-07-19T18:14:44.214Z,25.03
2023-07-19T18:18:46.342Z,24.85
2023-07-19T18:22:48.616Z,24.60
2023-07-19T18:26:51.913Z,24.39
2023-07-19T18:30:56.091Z,24.21
2023-07-19T18:34:58.217Z,23.90
2023-07-19T18:39:03.539Z,23.54
2023-07-19T18:43:07.321Z,23.27
2023-07-19T18:47:09.526Z,23.05
2023-07-19T18:51:12.284Z,22.82
2023-07-19T18:55:14.512Z,22.61
2023-07-19T18:59:16.696Z,22.31
2023-07-19T19:03:19.025Z,21.85
2023-07-19T19:07:21.324Z,21.60
2023-07-19T19:11:23.626Z,21.43
2023-07-19T19:15:26.306Z,21.33
2023-07-19T19:19:28.372Z,21.13
2023-07-19T19:23:30.496Z,21.01
2023-07-19T19:27:32.799Z,20.95
2023-07-19T19:31:37.760Z,20.91
2023-07-19T19:35:41.428Z,20.91
2023-07-19T19:39:43.451Z,20.91
2023-07-19T19:43:45.354Z,20.88
2023-07-19T19:47:47.520Z,20.83
2023-07-19T19:51:52.128Z,20.77
2023-07-19T19:56:17.664Z,20.70
2023-07-19T20:00:24.138Z,20.60
2023-07-19T20:04:27.385Z,20.53
2023-07-19T20:08:30.757Z,20.46
2023-07-19T20:12:35.593Z,20.35
2023-07-19T20:16:52.782Z,20.17
2023-07-19T20:20:57.128Z,20.00
2023-07-19T20:25:08.912Z,19.74
2023-07-19T20:33:30.811Z,19.24
2023-07-19T20:37:36.094Z,19.10
2023-07-19T20:41:39.736Z,18.99
2023-07-19T20:45:42.367Z,18.88
2023-07-19T20:50:07.103Z,18.80
2023-07-19T20:54:11.289Z,18.63
2023-07-19T20:58:14.138Z,18.43
2023-07-19T21:02:16.866Z,18.22
2023-07-19T21:06:21.865Z,18.15
2023-07-19T21:10:27.538Z,18.08
2023-07-19T21:14:29.746Z,18.06
2023-07-19T21:18:32.200Z,18.03
2023-07-19T21:22:34.798Z,17.99
2023-07-19T21:26:37.603Z,17.96
2023-07-19T21:30:40.067Z,17.94
2023-07-19T21:34:43.678Z,17.89
2023-07-19T21:38:46.235Z,17.84
2023-07-19T21:42:50.553Z,17.76
2023-07-19T21:46:52.869Z,17.73
2023-07-19T21:50:55.109Z,17.72
2023-07-19T21:54:57.088Z,17.69
2023-07-19T21:58:59.420Z,17.65
2023-07-19T22:03:01.514Z,17.61
2023-07-19T22:07:03.855Z,17.60
2023-07-19T22:11:09.033Z,17.58
2023-07-19T22:15:11.150Z,17.53
2023-07-19T22:19:13.843Z,17.48
2023-07-19T22:23:20.167Z,17.45
2023-07-19T22:27:22.872Z,17.39
2023-07-19T22:31:27.648Z,17.33
2023-07-19T22:35:29.769Z,17.25
2023-07-19T22:39:31.846Z,17.18
2023-07-19T22:43:34.166Z,17.15
2023-07-19T22:47:36.179Z,17.12
2023-07-19T22:51:39.171Z,17.09
2023-07-19T22:55:41.146Z,17.06
2023-07-19T22:59:45.897Z,17.02
2023-07-19T23:03:49.099Z,16.97
2023-07-19T23:07:51.277Z,16.95
2023-07-19T23:11:53.454Z,16.91
2023-07-19T23:15:55.780Z,16.86
2023-07-19T23:19:57.788Z,16.80
2023-07-19T23:23:59.756Z,16.75
2023-07-19T23:28:02.215Z,16.71
2023-07-19T23:32:05.630Z,16.66
2023-07-19T23:36:09.601Z,16.61
2023-07-19T23:40:14.867Z,16.56
2023-07-19T23:44:17.322Z,16.48
2023-07-19T23:48:19.580Z,16.42
2023-07-19T23:52:21.686Z,16.37
2023-07-19T23:56:24.886Z,16.37
